Time;durP1;ratioP1;P1;durP2;ratioP2;P2;SDS_P1;SDS_P2;PMS_P1;PMS_P2;Temp;Humidity;BMP_temperature;BMP_pressure;BME280_temperature;BME280_humidity;BME280_pressure;Samples;Min_cycle;Max_cycle;Signal;HPM_P1;HPM_P2
2021/09/18 00:00:05;;;;;;;3.90;1.47;;;;;;;12.30;91.43;100576.84;4994402;28;20253;-78
2021/09/18 00:02:31;;;;;;;1.67;1.37;;;;;;;12.25;91.68;100576.13;4978667;28;20256;-77
2021/09/18 00:04:58;;;;;;;2.80;1.10;;;;;;;12.24;92.09;100553.44;4986603;28;20234;-77
2021/09/18 00:07:24;;;;;;;2.50;0.90;;;;;;;12.35;92.81;100547.97;4979504;28;20211;-79
2021/09/18 00:09:50;;;;;;;1.57;1.47;;;;;;;12.39;92.46;100544.38;4990837;28;20267;-78
2021/09/18 00:12:17;;;;;;;2.17;1.30;;;;;;;12.33;91.49;100578.56;4989324;28;20480;-78
2021/09/18 00:14:43;;;;;;;2.93;1.43;;;;;;;12.26;91.51;100592.66;4988084;28;20235;-79
2021/09/18 00:17:11;;;;;;;5.47;1.80;;;;;;;12.17;92.29;100562.34;4994538;28;20335;-78
2021/09/18 00:19:37;;;;;;;2.13;1.30;;;;;;;12.06;92.65;100557.34;4986055;28;20718;-77
2021/09/18 00:22:04;;;;;;;2.60;1.50;;;;;;;12.03;93.04;100541.75;4990890;28;20266;-77
2021/09/18 00:24:30;;;;;;;1.83;1.70;;;;;;;12.01;92.78;100540.94;4988750;28;20248;-78
2021/09/18 00:26:57;;;;;;;1.50;1.40;;;;;;;12.05;93.61;100520.75;4985857;28;20238;-78
2021/09/18 00:29:23;;;;;;;1.67;1.57;;;;;;;11.95;93.12;100540.19;4992071;28;20258;-78
2021/09/18 00:31:49;;;;;;;4.70;1.87;;;;;;;11.91;92.94;100542.88;4986174;28;20231;-78
2021/09/18 00:34:17;;;;;;;2.97;1.70;;;;;;;11.97;93.25;100549.75;4993314;28;20267;-78
2021/09/18 00:36:43;;;;;;;3.63;1.70;;;;;;;12.02;93.41;100536.53;4991529;28;20235;-77
2021/09/18 00:39:10;;;;;;;4.33;1.70;;;;;;;12.09;93.49;100538.09;4992038;28;20255;-78
2021/09/18 00:41:36;;;;;;;1.90;1.30;;;;;;;12.01;92.49;100558.34;4987392;28;20231;-78
2021/09/18 00:44:03;;;;;;;1.77;1.60;;;;;;;12.06;92.57;100559.13;4985997;28;20674;-77
2021/09/18 00:46:29;;;;;;;1.77;1.63;;;;;;;12.06;92.61;100570.44;4993641;28;20690;-77
2021/09/18 00:48:56;;;;;;;3.20;1.30;;;;;;;12.06;92.23;100574.81;4993205;28;20251;-77
2021/09/18 00:51:23;;;;;;;2.07;1.53;;;;;;;11.99;92.22;100574.13;4985285;28;20232;-78
2021/09/18 00:53:50;;;;;;;3.47;1.87;;;;;;;11.96;92.13;100570.69;4989067;28;20228;-78
2021/09/18 00:56:18;;;;;;;3.53;1.80;;;;;;;11.83;92.72;100557.88;4982989;28;20224;-77
2021/09/18 00:58:44;;;;;;;2.10;1.60;;;;;;;11.69;92.89;100555.56;4985661;28;20246;-77
2021/09/18 01:01:11;;;;;;;2.60;1.67;;;;;;;11.68;93.51;100521.59;4987444;28;20231;-77
2021/09/18 01:03:37;;;;;;;1.80;1.70;;;;;;;11.67;93.50;100525.97;4991329;28;20250;-78
2021/09/18 01:06:03;;;;;;;2.53;1.60;;;;;;;11.69;93.79;100533.75;4981148;28;20235;-78
2021/09/18 01:08:32;;;;;;;1.87;1.40;;;;;;;11.65;93.83;100529.47;4975046;28;20251;-78
2021/09/18 01:10:58;;;;;;;4.87;1.43;;;;;;;11.62;93.21;100533.03;4982113;28;20255;-77
2021/09/18 01:13:25;;;;;;;1.40;1.30;;;;;;;11.57;93.62;100531.41;4989101;28;20231;-78
2021/09/18 01:15:52;;;;;;;2.60;1.50;;;;;;;11.54;94.00;100514.03;4993010;28;20208;-77
2021/09/18 01:18:19;;;;;;;3.03;1.30;;;;;;;11.48;93.83;100520.25;4992455;28;20638;-78
2021/09/18 01:20:49;;;;;;;2.10;1.40;;;;;;;11.51;94.02;100528.03;4992583;28;20721;-78
2021/09/18 01:23:18;;;;;;;1.60;1.20;;;;;;;11.53;93.82;100528.88;4981776;28;20200;-76
2021/09/18 01:25:45;;;;;;;3.27;1.73;;;;;;;11.47;93.67;100536.81;4974355;28;20240;-77
2021/09/18 01:28:11;;;;;;;2.60;1.07;;;;;;;11.46;93.84;100529.03;4981634;28;20294;-76
2021/09/18 01:30:38;;;;;;;7.07;2.30;;;;;;;11.47;93.93;100531.59;4974390;28;20251;-78
2021/09/18 01:33:07;;;;;;;3.57;1.10;;;;;;;11.54;nan;100529.72;4989809;28;20200;-79
2021/09/18 01:35:33;;;;;;;1.00;0.90;;;;;;;11.61;93.55;100538.28;4986280;28;20281;-78
2021/09/18 01:38:00;;;;;;;1.90;1.10;;;;;;;11.60;93.46;100549.66;4984717;28;20234;-78
2021/09/18 01:40:29;;;;;;;2.20;1.10;;;;;;;11.55;93.22;100556.72;4983900;28;20247;-78
2021/09/18 01:42:56;;;;;;;2.27;1.27;;;;;;;11.50;93.55;100549.84;4993291;28;20235;-78
2021/09/18 01:45:23;;;;;;;1.17;1.07;;;;;;;11.44;93.84;100543.91;4979030;28;20204;-77
2021/09/18 01:47:51;;;;;;;1.70;1.40;;;;;;;11.46;93.88;100539.50;4990278;28;20244;-78
2021/09/18 01:50:26;;;;;;;2.80;1.37;;;;;;;11.49;93.66;100542.88;4992541;28;20224;-77
2021/09/18 01:52:53;;;;;;;1.73;1.10;;;;;;;11.33;93.62;100536.25;4984494;28;20207;-78
2021/09/18 01:55:20;;;;;;;0.80;0.80;;;;;;;11.33;94.43;100536.25;4984514;28;20676;-79
2021/09/18 01:57:49;;;;;;;1.70;1.00;;;;;;;11.43;94.16;100535.16;4985618;28;20621;-78
2021/09/18 02:00:17;;;;;;;1.27;1.17;;;;;;;11.36;94.31;100540.56;4977203;28;20224;-78
2021/09/18 02:02:44;;;;;;;2.97;1.20;;;;;;;11.29;94.63;100535.44;4983765;28;20195;-78
2021/09/18 02:05:12;;;;;;;2.87;1.10;;;;;;;11.28;94.49;100525.91;4984281;28;20238;-78
2021/09/18 02:07:38;;;;;;;2.90;1.37;;;;;;;11.19;95.25;100509.56;4982399;28;20235;-78
2021/09/18 02:10:05;;;;;;;5.93;1.40;;;;;;;11.12;95.89;100486.16;4986042;28;20227;-78
2021/09/18 02:12:32;;;;;;;2.67;1.30;;;;;;;11.09;95.63;100501.03;4992359;28;20560;-78
2021/09/18 02:15:00;;;;;;;2.40;1.10;;;;;;;11.06;95.74;100491.53;4984215;28;20510;-77
2021/09/18 02:17:26;;;;;;;4.60;1.20;;;;;;;11.04;95.82;100479.38;4992188;28;20203;-78
2021/09/18 02:19:52;;;;;;;1.97;1.10;;;;;;;11.04;96.08;100474.13;4983629;28;20282;-78
2021/09/18 02:22:20;;;;;;;1.57;1.10;;;;;;;11.08;96.03;100473.19;4985663;28;20687;-78
2021/09/18 02:24:46;;;;;;;1.23;1.07;;;;;;;11.12;96.00;100478.34;4988658;28;20199;-78
2021/09/18 02:27:12;;;;;;;3.40;1.33;;;;;;;11.14;95.73;100491.38;4986152;28;20230;-77
2021/09/18 02:29:39;;;;;;;1.77;1.10;;;;;;;11.11;95.71;100494.03;4977018;28;20256;-78
2021/09/18 02:32:07;;;;;;;1.03;0.93;;;;;;;10.93;95.55;100483.06;4978148;28;20255;-79
2021/09/18 02:34:33;;;;;;;1.30;1.00;;;;;;;10.89;96.43;100468.34;4993596;28;20235;-78
2021/09/18 02:36:59;;;;;;;2.53;1.00;;;;;;;10.88;96.82;100460.53;4992725;28;20262;-78
2021/09/18 02:39:26;;;;;;;2.40;1.87;;;;;;;10.88;96.90;100463.13;4984921;28;20247;-77
2021/09/18 02:41:52;;;;;;;1.77;1.10;;;;;;;10.90;96.94;100462.25;4984576;28;20239;-78
2021/09/18 02:44:18;;;;;;;1.67;1.27;;;;;;;10.81;96.79;100469.38;4993365;28;20269;-79
2021/09/18 02:46:45;;;;;;;5.30;1.50;;;;;;;10.80;97.04;100452.00;4991821;28;20269;-77
2021/09/18 02:49:12;;;;;;;1.50;1.40;;;;;;;10.80;97.16;100452.00;4984320;28;20220;-79
2021/09/18 02:51:39;;;;;;;2.20;1.40;;;;;;;10.80;97.27;100452.88;4992831;28;20213;-79
2021/09/18 02:54:05;;;;;;;1.27;1.17;;;;;;;10.65;97.70;100445.31;4981705;28;20230;-78
2021/09/18 02:56:31;;;;;;;1.70;1.60;;;;;;;10.59;97.97;100438.47;4987095;28;20227;-77
2021/09/18 02:58:59;;;;;;;2.80;2.50;;;;;;;10.59;98.43;100427.19;4983660;28;20626;-79
2021/09/18 03:01:25;;;;;;;1.97;1.60;;;;;;;10.52;98.90;100416.84;4992545;28;20227;-78
2021/09/18 03:03:52;;;;;;;2.00;1.80;;;;;;;10.53;98.87;100413.34;4991562;28;20203;-78
2021/09/18 03:06:19;;;;;;;2.70;1.63;;;;;;;10.54;98.97;100408.97;4983989;28;20238;-77
2021/09/18 03:08:46;;;;;;;2.37;1.63;;;;;;;10.55;99.06;100408.09;4990943;28;20223;-77
2021/09/18 03:11:12;;;;;;;2.03;1.53;;;;;;;10.56;99.02;100419.41;4981440;28;20212;-77
2021/09/18 03:13:38;;;;;;;2.90;2.00;;;;;;;10.58;98.80;100421.06;4972577;28;20209;-79
2021/09/18 03:16:06;;;;;;;2.60;1.53;;;;;;;10.48;98.93;100417.78;4989377;28;20230;-78
2021/09/18 03:18:33;;;;;;;3.03;1.80;;;;;;;10.48;99.32;100411.69;4991517;28;20231;-77
2021/09/18 03:20:59;;;;;;;7.17;2.07;;;;;;;10.48;99.52;100402.13;4983188;28;20262;-78
2021/09/18 03:23:27;;;;;;;3.20;1.60;;;;;;;10.46;99.68;100403.03;4975522;28;20616;-78
2021/09/18 03:25:54;;;;;;;1.60;1.50;;;;;;;10.42;99.64;100397.03;4990284;28;20211;-77
2021/09/18 03:28:20;;;;;;;2.80;1.30;;;;;;;10.40;99.98;100393.56;4980740;28;20251;-77
2021/09/18 03:30:46;;;;;;;1.63;1.53;;;;;;;10.44;99.77;100390.03;4978043;28;20255;-77
2021/09/18 03:33:13;;;;;;;3.40;1.70;;;;;;;10.38;99.83;100397.97;4991257;28;20286;-78
2021/09/18 03:35:39;;;;;;;3.03;1.67;;;;;;;10.37;99.96;100396.25;4987058;28;20227;-77
2021/09/18 03:38:06;;;;;;;2.90;1.27;;;;;;;10.33;100.00;100399.81;4987874;28;20682;-77
2021/09/18 03:40:33;;;;;;;2.33;1.40;;;;;;;10.32;100.00;100398.94;4979404;28;20254;-78
2021/09/18 03:43:00;;;;;;;2.03;1.60;;;;;;;10.30;100.00;100398.09;4980145;28;20240;-78
2021/09/18 03:45:26;;;;;;;2.43;2.23;;;;;;;10.30;100.00;100400.72;4987871;28;20669;-77
2021/09/18 03:47:53;;;;;;;2.10;1.70;;;;;;;10.31;100.00;100399.00;4988863;28;20235;-77
2021/09/18 03:50:19;;;;;;;2.17;1.73;;;;;;;10.33;100.00;100394.59;4982281;28;20252;-77
2021/09/18 03:52:45;;;;;;;5.03;2.07;;;;;;;10.34;100.00;100405.00;4983391;28;20258;-77
2021/09/18 03:55:12;;;;;;;1.90;1.77;;;;;;;10.37;99.98;100413.69;4991273;28;20200;-77
2021/09/18 03:57:39;;;;;;;2.90;1.70;;;;;;;10.37;99.81;100432.78;4991777;28;20211;-77
2021/09/18 04:00:08;;;;;;;2.50;1.67;;;;;;;10.33;99.57;100441.56;4986359;28;20374;-78
2021/09/18 04:02:34;;;;;;;3.27;1.77;;;;;;;10.31;99.35;100448.56;4986189;28;20200;-77
2021/09/18 04:05:00;;;;;;;2.63;1.70;;;;;;;10.28;99.36;100452.03;4994744;28;20298;-78
2021/09/18 04:07:27;;;;;;;3.50;1.60;;;;;;;10.31;99.43;100459.00;4993497;28;20265;-78
2021/09/18 04:09:53;;;;;;;1.90;1.23;;;;;;;10.30;99.32;100462.47;4978907;28;20250;-77
2021/09/18 04:12:19;;;;;;;3.33;1.73;;;;;;;10.28;99.36;100449.41;4986621;28;20224;-78
2021/09/18 04:14:47;;;;;;;2.60;1.67;;;;;;;10.25;99.50;100456.47;4993635;28;20272;-77
2021/09/18 04:17:13;;;;;;;1.63;1.37;;;;;;;10.28;99.52;100451.19;4994304;28;20297;-76
2021/09/18 04:19:40;;;;;;;3.00;1.37;;;;;;;10.30;99.63;100457.25;4989725;28;20243;-78
2021/09/18 04:22:07;;;;;;;1.67;1.57;;;;;;;10.25;99.67;100453.84;4983588;28;20200;-77
2021/09/18 04:24:34;;;;;;;3.07;2.27;;;;;;;10.25;99.63;100453.84;4982885;28;20209;-77
2021/09/18 04:27:00;;;;;;;1.63;1.50;;;;;;;10.29;99.77;100453.78;4986489;28;20202;-78
2021/09/18 04:29:26;;;;;;;3.23;1.37;;;;;;;10.32;99.85;100453.72;4982619;28;20655;-75
2021/09/18 04:31:54;;;;;;;7.77;2.00;;;;;;;10.35;99.77;100458.06;4985479;28;20367;-78
2021/09/18 04:34:20;;;;;;;2.27;1.93;;;;;;;10.36;99.79;100461.53;4982500;28;20230;-78
2021/09/18 04:36:47;;;;;;;3.43;2.00;;;;;;;10.39;99.38;100459.72;4982956;28;20233;-77
2021/09/18 04:39:14;;;;;;;3.13;2.23;;;;;;;10.43;99.41;100474.44;4981565;28;20248;-78
2021/09/18 04:41:40;;;;;;;1.60;1.50;;;;;;;10.52;98.77;100496.88;4985283;28;20572;-78
2021/09/18 04:44:06;;;;;;;4.20;1.90;;;;;;;10.60;98.68;100497.59;4983528;28;20228;-78
2021/09/18 04:46:33;;;;;;;2.57;1.80;;;;;;;10.63;98.24;100513.22;4986028;28;20227;-78
2021/09/18 04:49:00;;;;;;;2.43;1.50;;;;;;;10.63;97.87;100522.81;4984560;28;20200;-78
2021/09/18 04:51:27;;;;;;;3.20;1.70;;;;;;;10.66;97.83;100535.78;4983474;28;20239;-77
2021/09/18 04:53:53;;;;;;;2.10;1.37;;;;;;;10.65;98.02;100531.47;4984629;28;20231;-78
2021/09/18 04:56:19;;;;;;;1.60;1.40;;;;;;;10.66;97.42;100544.50;4983942;28;20227;-78
2021/09/18 04:58:46;;;;;;;1.50;1.37;;;;;;;10.69;97.58;100547.03;4982857;28;20253;-79
2021/09/18 05:01:12;;;;;;;2.60;1.50;;;;;;;10.69;98.04;100530.53;4983302;28;20582;-78
2021/09/18 05:03:38;;;;;;;3.60;1.60;;;;;;;10.72;98.28;100520.91;4984297;28;20239;-79
2021/09/18 05:06:06;;;;;;;2.13;1.93;;;;;;;10.72;97.81;100531.34;4983980;28;20330;-77
2021/09/18 05:08:32;;;;;;;2.63;1.73;;;;;;;10.78;97.99;100542.53;4982712;28;20647;-79
2021/09/18 05:10:59;;;;;;;1.80;1.53;;;;;;;10.76;97.27;100554.78;4983814;28;20677;-79
2021/09/18 05:13:25;;;;;;;2.60;1.40;;;;;;;10.83;96.71;100574.66;4984944;28;20239;-78
2021/09/18 05:15:52;;;;;;;1.53;1.43;;;;;;;10.80;96.61;100578.22;4984702;28;20238;-78
2021/09/18 05:18:18;;;;;;;2.53;1.80;;;;;;;10.80;97.00;100586.03;4983135;28;20212;-77
2021/09/18 05:20:44;;;;;;;2.00;1.80;;;;;;;10.80;96.38;100590.38;4981727;28;20216;-78
2021/09/18 05:23:12;;;;;;;4.30;2.47;;;;;;;10.80;95.97;100619.09;4979274;28;20231;-78
2021/09/18 05:25:38;;;;;;;2.07;1.97;;;;;;;10.83;96.10;100611.22;4984767;28;20211;-77
2021/09/18 05:28:05;;;;;;;1.67;1.57;;;;;;;10.82;95.80;100617.31;4981595;28;20748;-77
2021/09/18 05:30:31;;;;;;;4.30;1.90;;;;;;;10.83;95.79;100630.34;4981834;28;20259;-78
2021/09/18 05:32:57;;;;;;;2.13;1.67;;;;;;;10.90;95.67;100628.50;4983548;28;20232;-78
2021/09/18 05:35:24;;;;;;;1.90;1.67;;;;;;;10.95;95.70;100642.34;4984356;28;20251;-78
2021/09/18 05:37:50;;;;;;;1.60;1.50;;;;;;;11.00;94.97;100653.59;4983766;28;20620;-77
2021/09/18 05:40:18;;;;;;;1.50;1.40;;;;;;;11.04;94.71;100675.28;4983027;28;20266;-77
2021/09/18 05:42:44;;;;;;;1.50;1.40;;;;;;;11.06;93.81;100697.00;4983619;28;20235;-78
2021/09/18 05:45:11;;;;;;;2.23;1.60;;;;;;;11.03;93.56;100710.13;4992313;28;20235;-78
2021/09/18 05:47:37;;;;;;;2.90;1.63;;;;;;;11.03;93.88;100703.16;4993754;28;20643;-77
2021/09/18 05:50:04;;;;;;;1.70;1.60;;;;;;;11.07;94.04;100704.81;4991683;28;20227;-77
2021/09/18 05:52:32;;;;;;;1.93;1.40;;;;;;;11.05;93.76;100704.00;4989357;28;20275;-77
2021/09/18 05:54:58;;;;;;;2.23;1.40;;;;;;;11.09;94.04;100702.19;4979754;28;20207;-77
2021/09/18 05:57:26;;;;;;;3.03;1.90;;;;;;;11.10;93.86;100698.72;4992665;28;20235;-77
2021/09/18 05:59:52;;;;;;;2.33;1.50;;;;;;;11.09;94.14;100689.97;4991367;28;20228;-77
2021/09/18 06:02:19;;;;;;;1.50;1.33;;;;;;;11.09;94.15;100699.59;4991339;28;20243;-78
2021/09/18 06:04:45;;;;;;;1.67;1.47;;;;;;;11.10;94.15;100694.34;4985163;28;20262;-78
2021/09/18 06:07:11;;;;;;;1.47;1.37;;;;;;;11.10;94.32;100701.31;4991349;28;20254;-78
2021/09/18 06:09:38;;;;;;;1.53;1.40;;;;;;;11.08;94.42;100698.72;4983367;28;20259;-77
2021/09/18 06:12:04;;;;;;;2.57;1.77;;;;;;;11.13;94.76;100688.19;4992327;28;20227;-77
2021/09/18 06:14:32;;;;;;;2.33;1.30;;;;;;;11.16;94.10;100705.56;4983516;28;20873;-77
2021/09/18 06:16:58;;;;;;;1.60;1.33;;;;;;;11.16;94.23;100710.78;4991772;28;20258;-78
2021/09/18 06:19:25;;;;;;;3.03;2.17;;;;;;;11.19;94.06;100710.75;4983425;28;20247;-77
2021/09/18 06:21:51;;;;;;;1.73;1.63;;;;;;;11.19;94.29;100701.16;4979080;28;20862;-77
2021/09/18 06:24:17;;;;;;;2.90;1.80;;;;;;;11.17;94.80;100674.19;4988476;28;20206;-77
2021/09/18 06:26:45;;;;;;;1.80;1.70;;;;;;;11.17;94.87;100673.31;4981108;28;20634;-77
2021/09/18 06:29:12;;;;;;;4.27;1.87;;;;;;;11.20;95.05;100661.06;4979279;28;20219;-77
2021/09/18 06:31:40;;;;;;;2.23;2.00;;;;;;;11.28;95.29;100663.56;4980763;28;20287;-77
2021/09/18 06:34:06;;;;;;;1.80;1.70;;;;;;;11.33;94.77;100664.31;4986377;28;20223;-78
2021/09/18 06:36:33;;;;;;;2.27;1.70;;;;;;;11.37;95.63;100652.91;4985305;28;20200;-78
2021/09/18 06:38:59;;;;;;;2.23;1.80;;;;;;;11.47;95.48;100648.38;4980620;28;20550;-78
2021/09/18 06:41:25;;;;;;;4.23;1.80;;;;;;;11.46;95.21;100673.66;4980610;28;20227;-78
2021/09/18 06:43:52;;;;;;;2.87;2.07;;;;;;;11.49;95.20;100670.13;4984772;28;20223;-77
2021/09/18 06:46:18;;;;;;;2.17;2.07;;;;;;;11.52;94.40;100691.84;4989657;28;20242;-77
2021/09/18 06:48:46;;;;;;;2.30;2.10;;;;;;;11.62;94.41;100696.91;4980348;28;20235;-77
2021/09/18 06:51:12;;;;;;;2.30;2.10;;;;;;;11.66;94.46;100704.66;4972756;28;20252;-77
2021/09/18 06:53:38;;;;;;;2.33;2.23;;;;;;;11.68;94.67;100702.88;4972466;28;20262;-78
2021/09/18 06:56:05;;;;;;;3.00;2.70;;;;;;;11.72;94.77;100701.06;4979326;28;20204;-77
2021/09/18 06:58:31;;;;;;;2.60;2.30;;;;;;;11.78;94.51;100705.31;4988771;28;20302;-77
2021/09/18 07:00:57;;;;;;;2.80;2.60;;;;;;;11.78;94.24;100718.38;4980361;28;20220;-77
2021/09/18 07:03:25;;;;;;;3.40;2.93;;;;;;;11.77;94.52;100719.25;4989688;28;20207;-78
2021/09/18 07:05:53;;;;;;;4.80;3.10;;;;;;;11.80;94.39;100709.63;4989221;28;20625;-78
2021/09/18 07:08:19;;;;;;;2.90;2.60;;;;;;;11.78;94.46;100707.94;4988132;28;20234;-79
2021/09/18 07:10:45;;;;;;;3.80;2.70;;;;;;;11.79;94.74;100709.63;4984029;28;20293;-78
2021/09/18 07:13:12;;;;;;;3.70;3.03;;;;;;;11.85;94.72;100697.31;4982973;28;20638;-79
2021/09/18 07:15:38;;;;;;;3.50;3.20;;;;;;;11.87;94.79;100707.72;4991162;28;20242;-79
2021/09/18 07:18:04;;;;;;;4.67;3.73;;;;;;;11.88;95.14;100704.22;4992001;28;20231;-79
2021/09/18 07:20:31;;;;;;;3.70;3.40;;;;;;;11.89;95.04;100704.25;4987174;28;20258;-79
2021/09/18 07:22:59;;;;;;;6.87;3.87;;;;;;;11.95;95.10;100702.38;4987247;28;20710;-79
2021/09/18 07:25:25;;;;;;;3.90;3.50;;;;;;;12.01;94.25;100731.91;4987582;28;20196;-79
2021/09/18 07:27:53;;;;;;;3.50;3.20;;;;;;;12.09;93.83;100747.44;4995702;28;20262;-79
2021/09/18 07:30:20;;;;;;;3.13;2.87;;;;;;;12.16;92.51;100774.34;4980781;28;20228;-79
2021/09/18 07:32:46;;;;;;;4.13;3.13;;;;;;;12.17;92.52;100782.19;4985281;28;20211;-79
2021/09/18 07:35:12;;;;;;;3.50;3.20;;;;;;;12.24;93.29;100773.28;4993258;28;20199;-79
2021/09/18 07:37:39;;;;;;;3.43;3.13;;;;;;;12.17;92.35;100795.28;4982781;28;20308;-79
2021/09/18 07:40:10;;;;;;;3.70;3.40;;;;;;;12.25;93.02;100782.88;4982744;28;20222;-79
2021/09/18 07:42:37;;;;;;;3.40;3.10;;;;;;;12.21;93.55;100780.34;4990194;28;20212;-78
2021/09/18 07:45:05;;;;;;;4.37;3.10;;;;;;;12.36;93.17;100766.09;4989558;28;20535;-78
2021/09/18 07:47:32;;;;;;;3.20;2.90;;;;;;;12.47;93.03;100774.59;4996733;28;20207;-78
2021/09/18 07:49:58;;;;;;;3.00;2.70;;;;;;;12.51;93.03;100795.44;4995104;28;20657;-78
2021/09/18 07:52:24;;;;;;;3.37;2.50;;;;;;;12.49;92.84;100788.50;4987808;28;20263;-78
2021/09/18 07:54:51;;;;;;;3.03;2.43;;;;;;;12.44;93.05;100790.34;4996473;28;20234;-78
2021/09/18 07:57:19;;;;;;;2.90;2.40;;;;;;;12.43;93.64;100775.56;4996959;28;20231;-78
2021/09/18 07:59:45;;;;;;;4.00;2.33;;;;;;;12.43;93.05;100780.78;4996631;28;20267;-78
2021/09/18 08:02:11;;;;;;;2.27;2.07;;;;;;;12.59;93.25;100789.19;4995502;28;20244;-77
2021/09/18 08:04:38;;;;;;;2.90;2.67;;;;;;;12.59;93.42;100776.94;4994799;28;20243;-78
2021/09/18 08:07:04;;;;;;;4.90;2.80;;;;;;;12.59;93.40;100774.31;4995777;28;20224;-77
2021/09/18 08:09:30;;;;;;;2.53;2.33;;;;;;;12.65;93.31;100773.31;4995891;28;20227;-76
2021/09/18 08:11:57;;;;;;;2.50;2.30;;;;;;;12.71;93.21;100778.44;4996368;28;20262;-78
2021/09/18 08:14:25;;;;;;;2.40;2.00;;;;;;;12.83;92.73;100799.09;4996323;28;20238;-78
2021/09/18 08:16:52;;;;;;;2.23;1.80;;;;;;;13.02;92.27;100807.41;4995464;28;20213;-78
2021/09/18 08:19:19;;;;;;;4.13;2.27;;;;;;;13.15;91.77;100841.19;4990222;28;20261;-77
2021/09/18 08:21:46;;;;;;;3.33;3.03;;;;;;;13.24;91.60;100859.31;4986640;28;20210;-77
2021/09/18 08:24:12;;;;;;;3.00;2.80;;;;;;;13.23;91.23;100854.97;4984290;28;20228;-78
2021/09/18 08:26:38;;;;;;;4.93;3.33;;;;;;;13.30;91.41;100859.22;4984043;28;20232;-77
2021/09/18 08:29:05;;;;;;;3.20;2.90;;;;;;;13.43;91.32;100862.41;4985267;28;20217;-77
2021/09/18 08:31:32;;;;;;;3.30;2.93;;;;;;;13.62;91.42;100858.44;4983595;28;20217;-78
2021/09/18 08:33:59;;;;;;;3.40;3.10;;;;;;;13.57;90.79;100883.91;4984435;28;20608;-77
2021/09/18 08:36:25;;;;;;;3.43;3.13;;;;;;;13.40;90.91;100896.56;4985968;28;20228;-78
2021/09/18 08:38:51;;;;;;;3.80;3.50;;;;;;;13.29;91.81;100870.56;4983677;28;20228;-78
2021/09/18 08:41:18;;;;;;;4.40;4.00;;;;;;;13.42;91.79;100850.19;4987260;28;20219;-78
2021/09/18 08:43:44;;;;;;;4.97;4.10;;;;;;;13.26;92.35;100840.06;4984457;28;20989;-77
2021/09/18 08:46:11;;;;;;;5.77;4.30;;;;;;;13.33;93.42;100801.47;4985818;28;20229;-77
2021/09/18 08:48:41;;;;;;;5.60;3.77;;;;;;;13.41;92.53;100801.28;4985178;28;20242;-76
2021/09/18 08:51:09;;;;;;;6.20;4.63;;;;;;;13.61;94.14;100771.91;4985067;28;20263;-76
2021/09/18 08:53:35;;;;;;;5.50;4.63;;;;;;;13.75;94.87;100759.28;4985726;28;20274;-76
2021/09/18 08:56:01;;;;;;;5.30;4.80;;;;;;;13.61;93.77;100783.25;4985042;28;20698;-77
2021/09/18 08:58:28;;;;;;;5.57;4.53;;;;;;;13.46;94.15;100776.66;4984807;28;20658;-77
2021/09/18 09:00:55;;;;;;;5.40;4.37;;;;;;;13.45;94.42;100760.97;4985011;28;20275;-78
2021/09/18 09:03:27;;;;;;;5.67;4.23;;;;;;;13.53;94.16;100760.75;4985355;28;20263;-76
2021/09/18 09:06:06;;;;;;;3.77;3.47;;;;;;;13.70;93.39;100796.16;4985347;28;20234;-76
2021/09/18 09:08:32;;;;;;;4.20;3.63;;;;;;;13.76;93.10;100810.88;4984805;28;20267;-76
2021/09/18 09:10:59;;;;;;;4.63;4.23;;;;;;;14.00;93.01;100817.22;4984885;28;21359;-77
2021/09/18 09:13:26;;;;;;;5.93;4.37;;;;;;;14.22;92.99;100828.00;4985229;28;20247;-77
2021/09/18 09:16:08;;;;;;;4.43;4.03;;;;;;;14.25;90.27;100903.19;4984889;28;20212;-76
2021/09/18 09:18:40;;;;;;;5.53;4.27;;;;;;;14.09;90.47;100919.38;4984478;28;20695;-76
2021/09/18 09:21:13;;;;;;;4.90;4.37;;;;;;;14.24;90.57;100904.97;4985111;28;20225;-77
2021/09/18 09:23:41;;;;;;;5.33;4.70;;;;;;;14.27;90.72;100899.63;4294646;28;10000646;-77
2021/09/18 09:26:07;;;;;;;6.87;4.63;;;;;;;14.48;90.59;100907.81;4981190;28;20702;-77
2021/09/18 09:28:36;;;;;;;5.67;5.17;;;;;;;14.26;90.14;100928.56;4981418;28;20212;-75
2021/09/18 09:31:14;;;;;;;5.50;5.00;;;;;;;14.44;89.58;100927.19;4981208;28;20268;-75
2021/09/18 09:34:01;;;;;;;5.17;4.77;;;;;;;14.46;89.24;100947.25;4981204;28;20209;-75
2021/09/18 09:36:29;;;;;;;4.50;4.20;;;;;;;14.48;89.81;100936.72;4981947;28;20205;-78
2021/09/18 09:38:58;;;;;;;4.90;4.33;;;;;;;14.65;89.60;100934.53;4981213;28;20767;-77
2021/09/18 09:41:32;;;;;;;4.97;4.57;;;;;;;14.58;88.94;100945.25;4981620;28;20240;-77
2021/09/18 09:43:59;;;;;;;6.13;4.70;;;;;;;14.54;89.15;100954.94;4981463;28;20217;-76
2021/09/18 09:46:26;;;;;;;5.70;5.10;;;;;;;14.79;89.26;100933.28;4981613;28;20282;-77
2021/09/18 09:49:03;;;;;;;4.50;4.17;;;;;;;14.77;89.04;100937.72;4981618;28;20304;-78
2021/09/18 09:51:31;;;;;;;4.20;3.90;;;;;;;14.92;88.60;100947.78;4981990;28;20265;-78
2021/09/18 09:54:16;;;;;;;4.63;4.30;;;;;;;15.02;88.80;100949.22;4981727;28;20980;-76
2021/09/18 09:56:43;;;;;;;4.27;3.70;;;;;;;14.88;89.07;100951.41;4980725;28;20735;-78
2021/09/18 09:59:09;;;;;;;4.47;4.07;;;;;;;15.07;89.06;100939.47;4983020;28;20825;-77
2021/09/18 10:01:36;;;;;;;4.90;4.20;;;;;;;14.95;87.84;100978.41;4982605;28;20705;-76
2021/09/18 10:04:02;;;;;;;6.10;3.87;;;;;;;15.05;88.25;100982.47;4982954;28;20249;-78
2021/09/18 10:06:31;;;;;;;4.83;4.40;;;;;;;15.06;87.71;100992.09;4982809;28;20250;-78
2021/09/18 10:08:58;;;;;;;4.73;4.33;;;;;;;15.03;87.87;100998.28;4982260;28;20237;-77
2021/09/18 10:11:30;;;;;;;4.07;3.53;;;;;;;15.04;88.07;100984.25;4981306;28;20261;-76
2021/09/18 10:13:57;;;;;;;6.10;3.73;;;;;;;15.24;87.42;101001.19;4981370;28;20686;-77
2021/09/18 10:16:26;;;;;;;4.10;3.80;;;;;;;15.27;87.22;101019.53;4981506;28;20291;-76
2021/09/18 10:18:55;;;;;;;5.70;3.73;;;;;;;15.35;86.51;101032.47;4980995;28;20291;-76
2021/09/18 10:24:09;;;;;;;3.90;3.60;;;;;;;15.84;85.33;101086.31;4982785;28;20276;-78
2021/09/18 10:26:36;;;;;;;4.43;4.13;;;;;;;15.93;84.86;101107.06;4980721;28;20639;-78
2021/09/18 10:29:03;;;;;;;4.03;3.73;;;;;;;15.85;83.75;101135.41;4981086;28;20323;-77
2021/09/18 10:31:30;;;;;;;4.50;4.20;;;;;;;15.84;84.01;101134.56;4980440;28;20294;-78
2021/09/18 10:33:56;;;;;;;3.70;3.23;;;;;;;15.88;84.23;101124.78;4981457;28;20295;-78
2021/09/18 10:36:40;;;;;;;3.63;3.33;;;;;;;16.00;83.98;101132.31;4980991;28;20629;-77
2021/09/18 10:39:11;;;;;;;3.20;3.00;;;;;;;16.16;84.35;101101.09;4981026;28;20247;-76
2021/09/18 10:41:41;;;;;;;3.93;3.60;;;;;;;16.33;83.61;101126.91;4981348;28;20319;-77
2021/09/18 10:44:07;;;;;;;5.27;3.37;;;;;;;16.14;82.49;101176.69;4981756;28;20267;-76
2021/09/18 10:46:42;;;;;;;3.70;3.47;;;;;;;16.40;83.07;101152.16;4981756;28;20244;-78
2021/09/18 10:49:37;;;;;;;3.90;3.60;;;;;;;16.41;82.07;101190.78;4980861;28;20310;-78
2021/09/18 10:52:25;;;;;;;3.43;3.23;;;;;;;16.67;82.15;101176.78;4981340;28;20664;-77
2021/09/18 10:55:14;;;;;;;3.60;3.20;;;;;;;16.92;81.18;101207.63;4975260;28;21054;-77
2021/09/18 10:58:04;;;;;;;3.03;2.83;;;;;;;16.98;79.36;101285.69;4968304;28;20268;-76
2021/09/18 11:00:53;;;;;;;2.63;2.50;;;;;;;16.65;79.17;101296.38;4984596;28;20285;-77
2021/09/18 11:03:46;;;;;;;3.27;2.97;;;;;;;16.74;80.19;101242.47;4980299;28;20638;-77
2021/09/18 11:06:36;;;;;;;2.90;2.60;;;;;;;17.18;80.21;101233.13;4980563;28;20211;-78
2021/09/18 11:09:04;;;;;;;3.70;3.40;;;;;;;17.15;78.01;101311.53;4984341;28;20234;-77
2021/09/18 11:11:32;;;;;;;3.60;3.30;;;;;;;17.19;79.84;101249.84;4984807;28;20305;-78
2021/09/18 11:14:00;;;;;;;4.17;3.60;;;;;;;17.12;79.23;101283.47;4984688;28;20218;-78
2021/09/18 11:16:32;;;;;;;3.80;3.60;;;;;;;16.82;79.99;101248.41;4985028;28;20615;-77
2021/09/18 11:19:08;;;;;;;3.40;3.10;;;;;;;17.13;80.51;101210.47;4985027;28;20211;-78
2021/09/18 11:21:36;;;;;;;3.60;3.30;;;;;;;17.42;79.05;101257.84;4984909;28;20214;-77
2021/09/18 11:24:05;;;;;;;4.00;3.60;;;;;;;17.34;77.85;101322.34;4984691;28;20582;-77
2021/09/18 11:26:45;;;;;;;4.17;3.87;;;;;;;17.76;77.57;101319.16;4984659;28;20238;-75
2021/09/18 11:29:21;;;;;;;4.03;3.73;;;;;;;17.81;74.48;101426.38;4984646;28;20608;-76